Time;durP1;ratioP1;P1;durP2;ratioP2;P2;SDS_P1;SDS_P2;PMS_P1;PMS_P2;Temp;Humidity;BMP_temperature;BMP_pressure;BME280_temperature;BME280_humidity;BME280_pressure;Samples;Min_cycle;Max_cycle;Signal;HPM_P1;HPM_P2
2021/07/15 00:00:30;;;;;;;3.17;2.47;;;17.80;89.80;;;;;;5058933;28;20453;-44
2021/07/15 00:03:01;;;;;;;2.23;1.80;;;17.80;89.80;;;;;;5056912;28;20475;-44
2021/07/15 00:05:28;;;;;;;2.00;1.70;;;17.70;89.80;;;;;;5063305;28;20468;-44
2021/07/15 00:07:55;;;;;;;1.53;1.17;;;17.80;89.80;;;;;;5061965;28;20480;-45
2021/07/15 00:10:44;;;;;;;1.90;1.17;;;17.70;89.80;;;;;;5059143;28;20465;-45
2021/07/15 00:13:13;;;;;;;1.83;1.60;;;17.80;89.80;;;;;;5059208;28;20485;-44
2021/07/15 00:15:44;;;;;;;3.97;2.47;;;17.80;89.80;;;;;;5086446;28;20458;-45
2021/07/15 00:18:12;;;;;;;1.67;1.57;;;17.70;89.80;;;;;;5063398;28;20519;-45
2021/07/15 00:20:43;;;;;;;2.30;1.53;;;17.80;89.80;;;;;;5061545;28;20583;-45
2021/07/15 00:23:11;;;;;;;2.10;1.73;;;17.80;89.80;;;;;;5059714;28;20458;-45
2021/07/15 00:25:38;;;;;;;1.90;1.50;;;17.70;89.80;;;;;;5058364;28;20465;-44
2021/07/15 00:28:05;;;;;;;2.03;1.83;;;17.80;89.80;;;;;;5061331;28;20458;-44
2021/07/15 00:30:32;;;;;;;4.13;1.67;;;17.80;89.80;;;;;;5069863;28;20473;-44
2021/07/15 00:33:00;;;;;;;2.07;1.63;;;17.80;89.80;;;;;;5059438;28;20497;-44
2021/07/15 00:35:26;;;;;;;1.80;1.20;;;17.80;89.80;;;;;;5060316;28;20465;-45
2021/07/15 00:37:53;;;;;;;1.70;1.60;;;17.80;89.80;;;;;;5058974;28;20454;-45
2021/07/15 00:40:20;;;;;;;2.50;1.50;;;17.80;89.80;;;;;;5058215;28;20456;-45
2021/07/15 00:42:46;;;;;;;1.50;1.40;;;17.80;89.80;;;;;;5058560;28;20461;-44
2021/07/15 00:45:17;;;;;;;4.43;1.97;;;17.80;89.80;;;;;;5062101;28;20464;-45
2021/07/15 00:47:45;;;;;;;1.67;1.50;;;17.80;89.80;;;;;;5088505;28;20801;-44
2021/07/15 00:50:13;;;;;;;1.70;1.30;;;17.80;89.80;;;;;;5062052;28;20454;-44
2021/07/15 00:52:43;;;;;;;2.27;1.80;;;17.90;89.80;;;;;;5068993;28;21006;-45
2021/07/15 00:55:25;;;;;;;2.20;1.93;;;17.80;89.80;;;;;;5096556;27;20455;-45
2021/07/15 00:57:52;;;;;;;6.30;1.90;;;17.80;89.80;;;;;;5088408;28;20458;-45
2021/07/15 01:00:20;;;;;;;2.47;2.27;;;17.80;89.80;;;;;;5061900;28;20461;-44
2021/07/15 01:02:47;;;;;;;3.03;2.83;;;17.80;89.80;;;;;;5060811;28;20974;-44
2021/07/15 01:05:18;;;;;;;4.07;2.43;;;17.80;89.80;;;;;;5063414;28;20895;-45
2021/07/15 01:07:45;;;;;;;3.80;2.53;;;17.80;89.80;;;;;;5065167;28;20463;-45
2021/07/15 01:10:15;;;;;;;4.27;2.77;;;17.80;89.80;;;;;;5065950;28;20471;-45
2021/07/15 01:13:22;;;;;;;2.97;2.00;;;17.80;89.80;;;;;;5062909;28;20512;-44
2021/07/15 01:16:25;;;;;;;2.47;2.27;;;17.80;89.80;;;;;;5055319;28;20607;-45
2021/07/15 01:19:25;;;;;;;3.73;2.30;;;17.80;89.80;;;;;;5089267;28;20477;-44
2021/07/15 01:22:14;;;;;;;6.90;2.87;;;17.80;89.80;;;;;;5061068;28;20465;-45
2021/07/15 01:25:08;;;;;;;4.53;2.90;;;17.80;89.80;;;;;;5063671;28;20460;-46
2021/07/15 01:27:56;;;;;;;6.77;3.83;;;17.80;89.80;;;;;;5097324;27;20460;-45
2021/07/15 01:30:29;;;;;;;3.67;3.17;;;17.80;89.80;;;;;;5061800;28;20458;-45
2021/07/15 01:33:16;;;;;;;4.20;3.60;;;17.80;89.80;;;;;;5064866;28;20995;-44
2021/07/15 01:36:03;;;;;;;3.40;3.10;;;17.70;89.80;;;;;;5064291;28;20515;-44
2021/07/15 01:38:38;;;;;;;4.17;3.77;;;17.70;89.80;;;;;;5063222;28;20459;-45
2021/07/15 01:41:12;;;;;;;4.40;4.00;;;17.80;89.80;;;;;;5064235;28;20455;-45
2021/07/15 01:43:45;;;;;;;3.87;3.20;;;17.70;89.80;;;;;;5064541;28;20466;-44
2021/07/15 01:46:14;;;;;;;5.43;4.07;;;17.70;89.80;;;;;;5060756;28;21029;-45
2021/07/15 01:48:43;;;;;;;4.83;3.90;;;17.70;89.80;;;;;;5060735;28;20549;-44
2021/07/15 01:51:11;;;;;;;4.60;4.20;;;17.70;89.80;;;;;;5061838;28;20462;-45
2021/07/15 01:53:38;;;;;;;6.77;5.07;;;17.70;89.80;;;;;;5062678;28;20938;-45
2021/07/15 01:56:07;;;;;;;7.00;5.20;;;17.70;89.80;;;;;;5064376;28;20453;-45
2021/07/15 01:58:36;;;;;;;7.90;4.30;;;17.70;89.80;;;;;;5088949;27;20465;-45
2021/07/15 02:01:06;;;;;;;5.07;4.57;;;17.70;89.80;;;;;;5060045;28;20789;-44
2021/07/15 02:03:35;;;;;;;6.33;5.00;;;17.70;89.80;;;;;;5061146;28;20489;-44
2021/07/15 02:06:05;;;;;;;7.70;5.03;;;17.70;89.80;;;;;;5063461;28;20853;-45
2021/07/15 02:08:33;;;;;;;8.40;6.07;;;17.70;89.80;;;;;;5066032;28;20827;-45
2021/07/15 02:11:01;;;;;;;19.17;11.40;;;17.70;89.80;;;;;;5060098;28;20473;-45
2021/07/15 02:13:29;;;;;;;24.53;14.97;;;17.70;89.80;;;;;;5065419;28;20890;-45
2021/07/15 02:15:57;;;;;;;25.13;14.10;;;17.70;89.80;;;;;;5087669;28;20466;-45
2021/07/15 02:18:26;;;;;;;25.50;13.80;;;17.70;89.80;;;;;;5064577;28;20945;-44
2021/07/15 02:20:55;;;;;;;23.33;14.07;;;17.70;89.80;;;;;;5060796;28;20958;-45
2021/07/15 02:23:23;;;;;;;23.00;13.17;;;17.70;89.80;;;;;;5091903;27;20466;-45
2021/07/15 02:25:52;;;;;;;24.20;12.80;;;17.70;89.80;;;;;;5091526;27;20483;-44
2021/07/15 02:28:23;;;;;;;23.53;14.70;;;17.70;89.80;;;;;;5063729;28;20454;-44
2021/07/15 02:30:56;;;;;;;21.53;12.83;;;17.80;89.80;;;;;;5057346;28;20463;-45
2021/07/15 02:33:26;;;;;;;18.90;10.87;;;17.80;89.80;;;;;;5060839;28;20482;-44
2021/07/15 02:35:58;;;;;;;15.03;9.43;;;17.80;89.80;;;;;;5062600;28;20457;-45
2021/07/15 02:38:26;;;;;;;10.93;8.17;;;17.80;89.80;;;;;;5060659;28;20463;-45
2021/07/15 02:40:53;;;;;;;14.47;8.73;;;17.80;89.80;;;;;;5064400;28;20468;-45
2021/07/15 02:43:20;;;;;;;8.90;5.83;;;17.80;89.80;;;;;;5055889;28;20463;-45
2021/07/15 02:45:46;;;;;;;8.97;6.50;;;17.80;89.80;;;;;;5062705;28;20465;-45
2021/07/15 02:48:16;;;;;;;8.83;5.33;;;17.80;89.80;;;;;;5092294;28;20488;-46
2021/07/15 02:50:43;;;;;;;5.03;4.63;;;17.80;89.80;;;;;;5061346;28;20458;-46
2021/07/15 02:53:11;;;;;;;4.40;4.00;;;17.80;89.80;;;;;;5062945;28;20849;-46
2021/07/15 02:55:48;;;;;;;8.47;4.03;;;17.80;89.80;;;;;;5063936;28;20449;-46
2021/07/15 02:58:21;;;;;;;3.60;3.30;;;17.80;89.80;;;;;;5065924;28;20469;-46
2021/07/15 03:00:57;;;;;;;8.07;3.60;;;17.80;89.80;;;;;;5061811;28;20465;-46
2021/07/15 03:03:43;;;;;;;8.00;3.67;;;17.80;89.80;;;;;;5057769;28;21053;-46
2021/07/15 03:06:36;;;;;;;3.77;3.47;;;17.80;89.80;;;;;;5087835;27;20481;-46
2021/07/15 03:09:11;;;;;;;5.60;3.80;;;17.80;89.80;;;;;;5060406;28;20468;-46
2021/07/15 03:11:45;;;;;;;6.60;4.70;;;17.80;89.80;;;;;;5065447;28;21429;-46
2021/07/15 03:14:13;;;;;;;6.20;4.40;;;17.80;89.80;;;;;;5090304;28;20840;-46
2021/07/15 03:16:43;;;;;;;6.37;5.20;;;17.80;89.80;;;;;;5059176;28;20468;-46
2021/07/15 03:19:12;;;;;;;7.57;5.70;;;17.80;89.80;;;;;;5055681;28;20569;-46
2021/07/15 03:21:42;;;;;;;8.80;5.70;;;17.80;89.80;;;;;;5060219;28;20458;-46
2021/07/15 03:24:13;;;;;;;7.10;6.23;;;17.80;89.80;;;;;;5056459;28;20451;-46
2021/07/15 03:26:42;;;;;;;8.87;7.07;;;17.80;89.80;;;;;;5089589;27;20453;-46
2021/07/15 03:29:12;;;;;;;12.23;7.70;;;17.80;89.80;;;;;;5064185;28;20458;-46
2021/07/15 03:31:39;;;;;;;10.13;8.07;;;17.80;89.80;;;;;;5058413;28;20488;-46
2021/07/15 03:34:06;;;;;;;8.67;7.77;;;17.80;89.80;;;;;;5058262;28;20505;-46
2021/07/15 03:36:33;;;;;;;11.00;7.27;;;17.70;89.80;;;;;;5058211;28;20454;-46
2021/07/15 03:39:01;;;;;;;10.30;8.07;;;17.80;89.80;;;;;;5062591;28;20773;-47
2021/07/15 03:41:28;;;;;;;8.37;7.00;;;17.80;89.80;;;;;;5062826;28;20454;-46
2021/07/15 03:43:55;;;;;;;8.30;6.80;;;17.80;89.80;;;;;;5060741;28;20467;-46
2021/07/15 03:46:22;;;;;;;8.17;5.93;;;17.70;89.80;;;;;;5060736;28;20541;-46
2021/07/15 03:48:49;;;;;;;9.33;6.37;;;17.70;89.80;;;;;;5059082;28;20458;-46
2021/07/15 03:51:16;;;;;;;7.50;6.60;;;17.70;89.80;;;;;;5060092;28;20965;-46
2021/07/15 03:53:45;;;;;;;14.20;5.97;;;17.70;89.80;;;;;;5061890;28;20488;-46
2021/07/15 03:56:14;;;;;;;7.77;6.40;;;17.70;89.80;;;;;;5066011;28;20532;-46
2021/07/15 03:58:45;;;;;;;7.50;6.57;;;17.70;89.80;;;;;;5061275;28;20464;-46
2021/07/15 04:01:12;;;;;;;7.87;6.70;;;17.70;89.80;;;;;;5086035;28;20445;-46
2021/07/15 04:03:44;;;;;;;8.50;7.47;;;17.70;89.80;;;;;;5061191;28;20518;-46
2021/07/15 04:06:11;;;;;;;8.87;6.40;;;17.70;89.80;;;;;;5057470;28;20454;-46
2021/07/15 04:08:42;;;;;;;9.17;7.17;;;17.70;89.80;;;;;;5054824;28;20461;-46
2021/07/15 04:11:09;;;;;;;10.13;7.10;;;17.70;89.80;;;;;;5057852;28;20469;-46
2021/07/15 04:13:39;;;;;;;7.43;6.23;;;17.70;89.80;;;;;;5063399;28;20495;-46
2021/07/15 04:16:24;;;;;;;6.30;5.70;;;17.80;89.80;;;;;;5062343;28;21014;-46
2021/07/15 04:18:57;;;;;;;8.70;6.00;;;17.80;89.80;;;;;;5057687;28;20534;-46
2021/07/15 04:21:27;;;;;;;7.03;6.17;;;17.80;89.80;;;;;;5061192;28;20462;-46
2021/07/15 04:23:55;;;;;;;6.63;5.77;;;17.80;89.80;;;;;;5058291;28;20457;-46
2021/07/15 04:26:26;;;;;;;5.20;4.80;;;17.80;89.80;;;;;;5066329;28;20465;-46
2021/07/15 04:28:53;;;;;;;7.20;5.33;;;17.80;89.80;;;;;;5067490;28;20480;-46
2021/07/15 04:32:00;;;;;;;5.70;5.10;;;17.80;89.80;;;;;;5063731;28;20457;-46
2021/07/15 04:34:29;;;;;;;5.70;5.00;;;17.80;89.80;;;;;;5070112;28;20497;-46
2021/07/15 04:36:57;;;;;;;7.03;5.47;;;17.90;89.80;;;;;;5062941;28;20473;-46
2021/07/15 04:39:26;;;;;;;6.20;5.60;;;17.90;89.80;;;;;;5096147;28;20454;-46
2021/07/15 04:41:56;;;;;;;5.50;5.00;;;17.80;89.80;;;;;;5064047;28;20458;-46
2021/07/15 04:44:28;;;;;;;6.00;4.90;;;17.90;89.80;;;;;;5061670;28;20465;-47
2021/07/15 04:46:56;;;;;;;6.10;5.50;;;17.90;89.80;;;;;;5062594;28;20464;-46
2021/07/15 04:49:23;;;;;;;7.03;5.57;;;17.90;89.80;;;;;;5057743;28;20512;-46
2021/07/15 04:51:51;;;;;;;6.03;5.43;;;17.90;89.80;;;;;;5064607;28;20456;-46
2021/07/15 04:54:20;;;;;;;5.80;5.23;;;17.90;89.80;;;;;;5062522;28;20485;-46
2021/07/15 04:56:47;;;;;;;8.03;5.17;;;17.90;89.80;;;;;;5065112;28;20465;-46
2021/07/15 04:59:14;;;;;;;6.00;5.40;;;17.90;89.80;;;;;;5062071;28;20457;-46
2021/07/15 05:01:41;;;;;;;6.07;5.57;;;17.90;89.80;;;;;;5060930;28;20465;-46
2021/07/15 05:04:08;;;;;;;6.20;5.60;;;17.90;89.80;;;;;;5061541;28;20502;-47
2021/07/15 05:06:35;;;;;;;6.43;5.80;;;17.90;89.80;;;;;;5062913;28;20486;-46
2021/07/15 05:09:03;;;;;;;6.20;5.60;;;17.90;89.80;;;;;;5061352;28;20493;-46
2021/07/15 05:11:31;;;;;;;8.63;6.33;;;17.90;89.80;;;;;;5065692;28;21291;-46
2021/07/15 05:13:58;;;;;;;7.73;6.27;;;17.90;89.80;;;;;;5061931;28;20505;-46
2021/07/15 05:16:27;;;;;;;6.70;5.97;;;17.90;89.80;;;;;;5060799;28;20481;-46
2021/07/15 05:18:54;;;;;;;6.80;5.70;;;17.90;89.80;;;;;;5066919;28;21027;-47
2021/07/15 05:21:21;;;;;;;6.13;5.60;;;17.90;89.80;;;;;;5064576;28;20473;-46
2021/07/15 05:23:48;;;;;;;6.60;6.00;;;17.90;89.80;;;;;;5060928;28;20471;-46
2021/07/15 05:26:15;;;;;;;8.10;5.80;;;17.90;89.80;;;;;;5093448;28;20967;-46
2021/07/15 05:28:42;;;;;;;7.27;6.20;;;17.90;89.80;;;;;;5060566;28;20457;-46
2021/07/15 05:31:11;;;;;;;8.80;6.70;;;17.90;89.80;;;;;;5091746;27;20970;-46
2021/07/15 05:33:38;;;;;;;8.40;6.93;;;17.90;89.80;;;;;;5059039;28;21059;-46
2021/07/15 05:36:05;;;;;;;10.73;7.53;;;17.90;89.80;;;;;;5057576;28;20459;-46
2021/07/15 05:38:32;;;;;;;9.03;7.80;;;17.90;89.80;;;;;;5055698;28;21010;-46
2021/07/15 05:40:59;;;;;;;8.70;7.63;;;17.90;89.80;;;;;;5061005;28;20455;-46
2021/07/15 05:43:25;;;;;;;12.23;9.50;;;17.90;89.80;;;;;;5065546;28;20461;-46
2021/07/15 05:45:52;;;;;;;13.63;10.00;;;17.90;89.80;;;;;;5094083;27;20836;-46
2021/07/15 05:48:19;;;;;;;12.47;8.87;;;17.80;89.80;;;;;;5059648;28;20456;-46
2021/07/15 05:50:47;;;;;;;9.73;8.40;;;17.80;89.80;;;;;;5066909;28;20507;-46
2021/07/15 05:53:14;;;;;;;17.00;9.20;;;17.90;89.80;;;;;;5066664;28;20838;-46
2021/07/15 05:55:40;;;;;;;9.03;8.13;;;17.90;89.60;;;;;;5066250;28;20469;-46
2021/07/15 05:58:08;;;;;;;10.50;8.47;;;17.90;89.50;;;;;;5060345;28;20462;-46
2021/07/15 06:00:36;;;;;;;9.17;7.60;;;17.90;89.50;;;;;;5065623;28;20441;-46
2021/07/15 06:03:03;;;;;;;8.97;7.53;;;17.90;89.50;;;;;;5064639;28;20465;-46
2021/07/15 06:05:30;;;;;;;8.77;7.53;;;17.90;89.60;;;;;;5063320;28;20886;-46
2021/07/15 06:07:58;;;;;;;8.93;7.53;;;18.00;89.60;;;;;;5063249;28;20461;-46
2021/07/15 06:10:25;;;;;;;7.77;6.93;;;18.00;89.60;;;;;;5063418;28;20449;-46
2021/07/15 06:12:52;;;;;;;9.50;8.33;;;18.00;89.60;;;;;;5090796;28;20467;-46
2021/07/15 06:15:18;;;;;;;10.93;7.27;;;18.00;89.60;;;;;;5065305;28;20488;-46
2021/07/15 06:17:46;;;;;;;9.03;8.00;;;18.00;89.60;;;;;;5062242;28;20488;-47
2021/07/15 06:20:13;;;;;;;10.60;7.67;;;18.00;89.60;;;;;;5058170;28;20475;-47
2021/07/15 06:22:41;;;;;;;8.27;7.40;;;18.10;89.60;;;;;;5059605;28;20462;-46
2021/07/15 06:25:09;;;;;;;8.40;7.60;;;18.20;89.80;;;;;;5063581;28;20457;-47
2021/07/15 06:27:40;;;;;;;7.83;6.70;;;18.30;89.20;;;;;;5062731;28;20540;-46
2021/07/15 06:30:09;;;;;;;7.80;6.90;;;18.40;88.90;;;;;;5061474;28;20464;-46
2021/07/15 06:32:36;;;;;;;7.43;6.60;;;18.50;89.00;;;;;;5064187;28;20452;-46
2021/07/15 06:35:08;;;;;;;7.07;6.40;;;18.60;88.60;;;;;;5064376;28;20580;-47
2021/07/15 06:37:42;;;;;;;6.10;5.60;;;18.60;88.40;;;;;;5060293;28;20856;-46
2021/07/15 06:40:10;;;;;;;6.20;5.60;;;18.70;87.90;;;;;;5060997;28;20474;-47
2021/07/15 06:42:38;;;;;;;7.10;5.90;;;18.80;87.60;;;;;;5092435;28;20971;-47
2021/07/15 06:45:07;;;;;;;7.53;5.60;;;18.80;87.10;;;;;;5058393;28;20461;-46
2021/07/15 06:47:35;;;;;;;5.63;4.50;;;18.80;86.90;;;;;;5089391;28;20461;-46
2021/07/15 06:50:08;;;;;;;4.97;4.40;;;18.80;86.10;;;;;;5060347;28;20469;-46
2021/07/15 06:52:35;;;;;;;5.33;4.83;;;18.80;85.80;;;;;;5063348;28;20472;-46
2021/07/15 06:55:03;;;;;;;4.90;4.50;;;18.80;85.90;;;;;;5060428;28;20483;-46
2021/07/15 06:57:30;;;;;;;5.20;4.70;;;18.80;85.70;;;;;;5091925;28;20949;-46
2021/07/15 06:59:57;;;;;;;4.53;4.13;;;18.90;85.60;;;;;;5059292;28;21029;-46
2021/07/15 07:02:24;;;;;;;5.53;4.50;;;18.90;85.30;;;;;;5061195;28;20455;-46
2021/07/15 07:04:52;;;;;;;3.40;3.00;;;19.00;85.40;;;;;;5051755;28;20478;-46
2021/07/15 07:07:18;;;;;;;4.20;3.90;;;19.10;85.20;;;;;;5058975;28;20456;-46
2021/07/15 07:09:45;;;;;;;3.00;2.80;;;19.10;84.70;;;;;;5065415;28;20476;-46
2021/07/15 07:12:12;;;;;;;4.00;3.67;;;19.20;84.00;;;;;;5062605;28;20454;-46
2021/07/15 07:14:38;;;;;;;3.20;2.90;;;19.30;83.80;;;;;;5060020;28;20481;-46
2021/07/15 07:17:05;;;;;;;3.10;2.30;;;19.30;83.50;;;;;;5060275;28;20483;-46
2021/07/15 07:19:32;;;;;;;2.90;2.17;;;19.40;83.40;;;;;;5062173;28;20477;-46
2021/07/15 07:21:59;;;;;;;2.47;2.27;;;19.50;83.20;;;;;;5087915;28;20508;-46
2021/07/15 07:24:25;;;;;;;2.97;1.83;;;19.50;83.00;;;;;;5066081;28;20492;-46
2021/07/15 07:26:52;;;;;;;2.90;2.30;;;19.60;82.20;;;;;;5065019;28;20457;-46
2021/07/15 07:29:19;;;;;;;1.60;1.50;;;19.60;82.10;;;;;;5092322;28;20457;-47
2021/07/15 07:31:45;;;;;;;1.93;1.80;;;19.70;81.10;;;;;;5060808;28;20442;-46
2021/07/15 07:34:16;;;;;;;2.00;1.90;;;19.80;80.40;;;;;;5061086;28;20577;-46
2021/07/15 07:36:43;;;;;;;2.50;1.73;;;19.90;80.30;;;;;;5060727;28;20458;-46
2021/07/15 07:39:10;;;;;;;1.47;1.37;;;19.90;78.90;;;;;;5058313;28;20447;-46
2021/07/15 07:41:37;;;;;;;2.93;1.77;;;20.00;78.40;;;;;;5085890;28;20961;-46
2021/07/15 07:44:04;;;;;;;1.17;1.07;;;20.00;78.80;;;;;;5058203;28;21089;-46
2021/07/15 07:46:31;;;;;;;1.53;1.43;;;19.90;79.10;;;;;;5064377;28;20465;-46
2021/07/15 07:48:58;;;;;;;1.53;1.43;;;19.90;79.10;;;;;;5090940;28;20504;-46
2021/07/15 07:51:24;;;;;;;1.40;1.30;;;20.00;79.00;;;;;;5059583;28;20466;-46
2021/07/15 07:53:52;;;;;;;1.50;1.40;;;20.10;79.60;;;;;;5060306;28;20942;-46
2021/07/15 07:56:18;;;;;;;1.20;1.10;;;20.20;78.70;;;;;;5058265;28;20449;-46
2021/07/15 07:58:45;;;;;;;1.50;1.40;;;20.40;78.40;;;;;;5060640;28;20462;-46
2021/07/15 08:01:12;;;;;;;1.40;1.30;;;20.50;77.90;;;;;;5065458;28;20458;-46
2021/07/15 08:03:39;;;;;;;1.90;1.20;;;20.70;78.20;;;;;;5090759;28;20451;-47
2021/07/15 08:06:06;;;;;;;2.17;1.50;;;20.80;77.90;;;;;;5062677;28;20978;-47
2021/07/15 08:08:35;;;;;;;2.10;1.10;;;21.00;76.40;;;;;;5060895;28;20458;-47
2021/07/15 08:11:04;;;;;;;1.73;1.20;;;21.20;75.90;;;;;;5090091;28;20477;-47
2021/07/15 08:13:32;;;;;;;1.37;1.30;;;21.40;75.10;;;;;;5069423;28;20848;-47
2021/07/15 08:15:58;;;;;;;1.40;1.30;;;21.60;74.40;;;;;;5094831;27;20528;-47
2021/07/15 08:18:25;;;;;;;1.10;1.10;;;21.70;74.50;;;;;;5090002;28;20477;-47
2021/07/15 08:20:52;;;;;;;1.30;1.03;;;21.90;74.10;;;;;;5060835;28;20460;-47
2021/07/15 08:23:19;;;;;;;0.93;0.90;;;22.20;73.00;;;;;;5064163;28;20475;-47
2021/07/15 08:25:46;;;;;;;1.27;1.20;;;22.40;72.70;;;;;;5062180;28;20954;-47
2021/07/15 08:28:12;;;;;;;1.20;1.10;;;22.60;71.40;;;;;;5064309;28;20454;-47
2021/07/15 08:30:40;;;;;;;1.33;0.80;;;22.70;71.20;;;;;;5061108;28;20471;-47
2021/07/15 08:33:07;;;;;;;1.13;1.03;;;22.90;70.30;;;;;;5065436;28;20460;-47
2021/07/15 08:35:34;;;;;;;0.80;0.80;;;23.10;68.90;;;;;;5062880;28;20747;-47
2021/07/15 08:38:02;;;;;;;1.00;0.70;;;23.20;69.40;;;;;;5066143;28;20498;-47
2021/07/15 08:40:29;;;;;;;0.73;0.70;;;23.40;68.20;;;;;;5069901;28;20940;-47
2021/07/15 08:42:56;;;;;;;0.80;0.80;;;23.50;67.60;;;;;;5068388;28;20448;-47
2021/07/15 08:45:26;;;;;;;0.80;0.80;;;23.60;67.50;;;;;;5066218;28;20461;-47
2021/07/15 08:47:55;;;;;;;0.63;0.63;;;23.70;67.80;;;;;;5067274;28;20495;-47
2021/07/15 08:50:22;;;;;;;0.63;0.63;;;23.90;67.20;;;;;;5089717;28;20500;-47
2021/07/15 08:52:49;;;;;;;1.07;0.60;;;24.00;66.50;;;;;;5064787;28;20456;-47
2021/07/15 08:55:21;;;;;;;1.47;0.80;;;24.10;65.50;;;;;;5064916;28;20677;-47
2021/07/15 08:57:48;;;;;;;0.73;0.73;;;24.00;65.50;;;;;;5061999;28;20544;-47
2021/07/15 09:00:16;;;;;;;0.50;0.50;;;23.90;66.50;;;;;;5058763;28;20457;-47
2021/07/15 09:02:44;;;;;;;0.73;0.73;;;23.90;66.90;;;;;;5068421;28;20464;-47
2021/07/15 09:05:14;;;;;;;2.00;0.90;;;24.00;67.30;;;;;;5059169;28;20541;-47
2021/07/15 09:07:44;;;;;;;1.47;0.60;;;24.10;65.80;;;;;;5058377;28;20684;-47
2021/07/15 09:10:12;;;;;;;0.70;0.50;;;24.20;64.60;;;;;;5057893;28;20991;-47
2021/07/15 09:12:39;;;;;;;0.70;0.67;;;24.20;64.90;;;;;;5059302;28;21071;-47
2021/07/15 09:15:07;;;;;;;2.60;0.80;;;24.30;64.30;;;;;;5062080;28;20478;-47
2021/07/15 09:17:36;;;;;;;0.70;0.70;;;24.50;64.50;;;;;;5064218;28;20469;-47
2021/07/15 09:20:14;;;;;;;0.63;0.60;;;24.80;64.30;;;;;;5068314;28;20466;-47
2021/07/15 09:23:00;;;;;;;0.63;0.60;;;25.10;63.10;;;;;;5060523;28;20807;-47
2021/07/15 09:25:47;;;;;;;0.50;0.50;;;25.50;62.10;;;;;;5065846;28;20537;-47
2021/07/15 09:28:15;;;;;;;0.70;0.40;;;25.80;59.20;;;;;;5061114;28;20647;-47
2021/07/15 09:30:42;;;;;;;0.40;0.40;;;25.70;58.80;;;;;;5059883;28;20450;-47
2021/07/15 09:33:14;;;;;;;0.70;0.40;;;25.50;59.40;;;;;;5088539;28;20449;-47
2021/07/15 09:35:45;;;;;;;0.60;0.50;;;25.30;59.50;;;;;;5061736;28;20487;-47
2021/07/15 09:38:19;;;;;;;0.80;0.40;;;25.00;60.20;;;;;;5061354;28;20859;-47
2021/07/15 09:40:55;;;;;;;0.50;0.40;;;24.70;61.20;;;;;;5063868;28;20452;-47
2021/07/15 09:43:23;;;;;;;0.60;0.40;;;24.50;61.60;;;;;;5065323;28;20547;-47
2021/07/15 09:45:56;;;;;;;0.63;0.40;;;24.40;61.50;;;;;;5067013;28;20468;-47
2021/07/15 09:48:30;;;;;;;0.50;0.43;;;24.30;60.90;;;;;;5067902;28;20438;-47
2021/07/15 09:50:59;;;;;;;0.70;0.70;;;24.20;60.80;;;;;;5090546;28;20518;-47
2021/07/15 09:53:36;;;;;;;0.70;0.60;;;24.10;61.70;;;;;;5065518;28;20484;-47
2021/07/15 09:56:06;;;;;;;0.90;0.80;;;24.10;62.90;;;;;;5061400;28;20495;-46
2021/07/15 09:58:34;;;;;;;2.40;0.77;;;24.10;62.90;;;;;;5060623;28;20444;-47
2021/07/15 10:01:03;;;;;;;0.63;0.63;;;24.10;62.90;;;;;;5064749;28;20536;-47
2021/07/15 10:03:41;;;;;;;4.63;1.27;;;24.10;63.20;;;;;;5065493;28;21053;-46
2021/07/15 10:06:09;;;;;;;0.70;0.60;;;24.10;63.00;;;;;;5060030;28;20445;-46
2021/07/15 10:08:38;;;;;;;0.53;0.53;;;24.00;62.90;;;;;;5062183;28;20452;-46
2021/07/15 10:11:20;;;;;;;0.63;0.60;;;24.00;62.70;;;;;;5065274;28;20457;-47
2021/07/15 10:13:59;;;;;;;0.50;0.50;;;23.90;62.90;;;;;;5063953;28;20452;-47
2021/07/15 10:16:33;;;;;;;0.80;0.80;;;23.90;62.80;;;;;;5059158;28;20482;-47
2021/07/15 10:19:01;;;;;;;0.50;0.50;;;23.80;62.60;;;;;;5059377;28;20477;-47
2021/07/15 10:21:33;;;;;;;0.60;0.53;;;23.80;63.50;;;;;;5056800;28;20465;-47
2021/07/15 10:24:17;;;;;;;0.57;0.50;;;23.80;63.20;;;;;;5062633;28;20460;-47
2021/07/15 10:26:51;;;;;;;0.57;0.50;;;23.80;63.50;;;;;;5062875;28;20464;-47
2021/07/15 10:29:19;;;;;;;0.80;0.57;;;23.80;62.90;;;;;;5061277;28;20460;-46
2021/07/15 10:31:48;;;;;;;1.63;0.90;;;23.70;63.10;;;;;;5061095;28;20800;-46
2021/07/15 10:34:15;;;;;;;0.70;0.70;;;23.70;63.50;;;;;;5060227;28;20458;-46
2021/07/15 10:36:43;;;;;;;1.03;0.80;;;23.60;64.00;;;;;;5062024;28;20484;-47
2021/07/15 10:39:16;;;;;;;1.00;0.93;;;23.50;64.70;;;;;;5059243;28;20450;-47
2021/07/15 10:41:46;;;;;;;1.37;0.80;;;23.50;64.50;;;;;;5062265;28;20469;-46
2021/07/15 10:44:13;;;;;;;0.50;0.50;;;23.50;64.60;;;;;;5060969;28;20457;-46
2021/07/15 10:46:40;;;;;;;0.73;0.73;;;23.40;64.50;;;;;;5088043;28;20464;-47
2021/07/15 10:49:24;;;;;;;0.83;0.83;;;23.40;64.70;;;;;;5060603;28;20462;-46
2021/07/15 10:51:53;;;;;;;0.80;0.80;;;23.40;64.30;;;;;;5066157;28;20731;-47
2021/07/15 10:54:21;;;;;;;1.67;0.80;;;23.30;64.20;;;;;;5063939;28;20546;-46
2021/07/15 10:56:49;;;;;;;0.83;0.80;;;23.30;64.80;;;;;;5062171;28;20496;-46
2021/07/15 10:59:31;;;;;;;1.10;1.00;;;23.20;65.50;;;;;;5059085;28;20456;-46
2021/07/15 11:02:02;;;;;;;0.80;0.70;;;23.10;65.80;;;;;;5059431;28;20543;-47
2021/07/15 11:04:37;;;;;;;0.70;0.70;;;23.00;66.00;;;;;;5062423;28;20477;-46
2021/07/15 11:07:28;;;;;;;1.13;1.03;;;22.90;66.20;;;;;;5059287;28;20474;-46
2021/07/15 11:10:21;;;;;;;1.43;0.87;;;22.80;67.30;;;;;;5059553;28;20476;-46
2021/07/15 11:12:56;;;;;;;1.20;1.13;;;22.70;68.70;;;;;;5060068;28;20996;-47
2021/07/15 11:15:23;;;;;;;1.17;1.00;;;22.50;68.90;;;;;;5086266;27;20951;-46
2021/07/15 11:17:52;;;;;;;0.93;0.93;;;22.40;69.20;;;;;;5063350;28;20486;-46
2021/07/15 11:20:32;;;;;;;1.63;1.53;;;22.30;69.20;;;;;;5055951;28;20454;-46
2021/07/15 11:23:00;;;;;;;1.00;1.00;;;22.30;69.30;;;;;;5058842;28;20453;-46
2021/07/15 11:25:28;;;;;;;1.03;1.03;;;22.20;69.80;;;;;;5065463;28;20527;-47
2021/07/15 11:28:00;;;;;;;1.43;1.23;;;22.20;70.00;;;;;;5063002;28;20461;-47
2021/07/15 11:30:50;;;;;;;0.70;0.70;;;22.10;70.20;;;;;;5062075;28;20442;-47
2021/07/15 11:33:21;;;;;;;1.13;1.03;;;22.10;70.40;;;;;;5056715;28;20489;-47
2021/07/15 11:36:07;;;;;;;0.80;0.80;;;22.10;70.70;;;;;;5062071;28;20550;-47
2021/07/15 11:38:44;;;;;;;2.67;1.20;;;22.10;70.80;;;;;;5061874;28;20495;-47
2021/07/15 11:41:13;;;;;;;1.67;1.17;;;22.10;70.70;;;;;;5059239;28;20530;-47
2021/07/15 11:43:56;;;;;;;1.37;1.10;;;22.10;70.90;;;;;;5087686;28;20465;-47
2021/07/15 11:46:37;;;;;;;1.37;1.27;;;22.20;70.70;;;;;;5062813;28;20476;-47
2021/07/15 11:49:12;;;;;;;1.63;1.00;;;22.30;70.30;;;;;;5058337;28;20525;-47
2021/07/15 11:51:40;;;;;;;1.63;1.47;;;22.30;70.40;;;;;;5088693;28;20452;-47
2021/07/15 11:54:25;;;;;;;1.30;1.10;;;22.40;70.70;;;;;;5088585;28;20445;-47
2021/07/15 11:57:17;;;;;;;1.30;1.20;;;22.50;70.50;;;;;;5063081;28;20521;-47
2021/07/15 11:59:51;;;;;;;0.70;0.70;;;22.60;70.00;;;;;;5059814;28;20454;-47
2021/07/15 12:02:35;;;;;;;0.80;0.80;;;22.60;69.20;;;;;;5065060;28;20528;-47
2021/07/15 12:05:15;;;;;;;1.00;0.70;;;22.70;68.80;;;;;;5057575;28;20571;-47
2021/07/15 12:07:46;;;;;;;1.20;1.00;;;22.90;68.10;;;;;;5059093;28;20483;-47
2021/07/15 12:10:25;;;;;;;1.30;1.30;;;23.00;67.00;;;;;;5088857;28;20442;-47
2021/07/15 12:12:55;;;;;;;1.33;0.90;;;23.10;65.80;;;;;;5090036;28;20444;-47
2021/07/15 12:15:25;;;;;;;0.90;0.90;;;23.20;65.10;;;;;;5060962;28;20991;-47
2021/07/15 12:17:55;;;;;;;1.27;0.80;;;23.30;64.60;;;;;;5090975;28;20489;-47
2021/07/15 12:20:25;;;;;;;1.00;0.90;;;23.40;64.10;;;;;;5055861;28;20461;-47
2021/07/15 12:22:56;;;;;;;1.50;0.77;;;23.50;64.10;;;;;;5061725;28;20476;-47
2021/07/15 12:25:30;;;;;;;0.93;0.60;;;23.60;63.40;;;;;;5060234;28;20464;-47
2021/07/15 12:28:08;;;;;;;1.07;1.07;;;23.70;61.80;;;;;;5059591;28;20552;-47
2021/07/15 12:30:45;;;;;;;0.77;0.77;;;23.80;62.90;;;;;;5063521;28;20981;-47
2021/07/15 12:33:15;;;;;;;2.30;1.10;;;23.90;61.50;;;;;;5057965;28;20460;-47
2021/07/15 12:35:44;;;;;;;1.90;1.00;;;24.00;61.60;;;;;;5060417;28;20489;-47
2021/07/15 12:38:16;;;;;;;1.13;1.03;;;24.00;61.70;;;;;;5060159;28;20548;-47
2021/07/15 12:40:43;;;;;;;1.07;1.00;;;24.10;62.10;;;;;;5090117;28;20458;-47
2021/07/15 12:43:17;;;;;;;0.87;0.87;;;24.20;63.00;;;;;;5063294;28;20444;-47
2021/07/15 12:45:53;;;;;;;0.87;0.87;;;24.20;62.80;;;;;;5057473;28;20467;-47
2021/07/15 12:48:22;;;;;;;1.80;1.27;;;24.20;63.30;;;;;;5062695;28;20460;-47
2021/07/15 12:50:51;;;;;;;0.87;0.70;;;24.30;62.40;;;;;;5064735;28;20461;-47
2021/07/15 12:53:24;;;;;;;1.60;0.90;;;24.30;62.40;;;;;;5065647;28;20449;-47
2021/07/15 12:55:58;;;;;;;1.20;1.10;;;24.30;62.20;;;;;;5063882;28;20487;-47
2021/07/15 12:58:26;;;;;;;1.10;1.00;;;24.40;62.30;;;;;;5064275;28;20484;-47
2021/07/15 13:01:03;;;;;;;1.20;1.10;;;24.40;62.50;;;;;;5058997;28;20900;-47
2021/07/15 13:03:31;;;;;;;0.87;0.87;;;24.50;63.10;;;;;;5060402;28;20500;-47